sensor_id;sensor_type;location;lat;lon;timestamp;temperature;humidity
54518;DHT22;40423;53.176;6.002;2023-03-21T00:01:14;9.30;99.90
54518;DHT22;40423;53.176;6.002;2023-03-21T00:03:40;9.30;99.90
54518;DHT22;40423;53.176;6.002;2023-03-21T00:06:11;9.30;99.90
54518;DHT22;40423;53.176;6.002;2023-03-21T00:08:38;9.30;99.90
54518;DHT22;40423;53.176;6.002;2023-03-21T00:11:06;9.30;99.90
54518;DHT22;40423;53.176;6.002;2023-03-21T00:13:33;9.20;99.90
54518;DHT22;40423;53.176;6.002;2023-03-21T00:16:13;9.20;99.90
54518;DHT22;40423;53.176;6.002;2023-03-21T00:18:46;9.20;99.90
54518;DHT22;40423;53.176;6.002;2023-03-21T00:21:17;9.20;99.90
54518;DHT22;40423;53.176;6.002;2023-03-21T00:23:44;9.20;99.90
54518;DHT22;40423;53.176;6.002;2023-03-21T00:26:11;9.20;99.90
54518;DHT22;40423;53.176;6.002;2023-03-21T00:28:38;9.20;99.90
54518;DHT22;40423;53.176;6.002;2023-03-21T00:31:05;9.20;99.90
54518;DHT22;40423;53.176;6.002;2023-03-21T00:33:32;9.20;99.90
54518;DHT22;40423;53.176;6.002;2023-03-21T00:35:59;9.20;99.90
54518;DHT22;40423;53.176;6.002;2023-03-21T00:38:25;9.20;99.90
54518;DHT22;40423;53.176;6.002;2023-03-21T00:40:52;9.20;99.90
54518;DHT22;40423;53.176;6.002;2023-03-21T00:43:18;9.20;99.90
54518;DHT22;40423;53.176;6.002;2023-03-21T00:45:49;9.30;99.90
54518;DHT22;40423;53.176;6.002;2023-03-21T00:48:15;9.20;99.90
54518;DHT22;40423;53.176;6.002;2023-03-21T00:50:41;9.20;99.90
54518;DHT22;40423;53.176;6.002;2023-03-21T00:53:10;9.20;99.90
54518;DHT22;40423;53.176;6.002;2023-03-21T00:55:35;9.20;99.90
54518;DHT22;40423;53.176;6.002;2023-03-21T00:58:03;9.30;99.90
54518;DHT22;40423;53.176;6.002;2023-03-21T01:00:30;9.20;99.90
54518;DHT22;40423;53.176;6.002;2023-03-21T01:02:57;9.30;99.90
54518;DHT22;40423;53.176;6.002;2023-03-21T01:05:31;9.30;99.90
54518;DHT22;40423;53.176;6.002;2023-03-21T01:08:17;9.30;99.90
54518;DHT22;40423;53.176;6.002;2023-03-21T01:10:45;9.30;99.90
54518;DHT22;40423;53.176;6.002;2023-03-21T01:13:13;9.30;99.90
54518;DHT22;40423;53.176;6.002;2023-03-21T01:15:47;9.30;99.90
54518;DHT22;40423;53.176;6.002;2023-03-21T01:18:14;9.20;99.90
54518;DHT22;40423;53.176;6.002;2023-03-21T01:20:42;9.30;99.90
54518;DHT22;40423;53.176;6.002;2023-03-21T01:23:09;9.30;99.90
54518;DHT22;40423;53.176;6.002;2023-03-21T01:25:35;9.30;99.90
54518;DHT22;40423;53.176;6.002;2023-03-21T01:28:01;9.30;99.90
54518;DHT22;40423;53.176;6.002;2023-03-21T01:30:27;9.30;99.90
54518;DHT22;40423;53.176;6.002;2023-03-21T01:32:52;9.30;99.90
54518;DHT22;40423;53.176;6.002;2023-03-21T01:35:18;9.30;99.90
54518;DHT22;40423;53.176;6.002;2023-03-21T01:37:44;9.30;99.90
54518;DHT22;40423;53.176;6.002;2023-03-21T01:40:15;9.30;99.90
54518;DHT22;40423;53.176;6.002;2023-03-21T01:42:42;9.30;99.90
54518;DHT22;40423;53.176;6.002;2023-03-21T01:48:12;9.20;99.90
54518;DHT22;40423;53.176;6.002;2023-03-21T01:50:39;9.20;99.90
54518;DHT22;40423;53.176;6.002;2023-03-21T01:53:05;9.20;99.90
54518;DHT22;40423;53.176;6.002;2023-03-21T01:55:31;9.20;99.90
54518;DHT22;40423;53.176;6.002;2023-03-21T01:57:59;9.20;99.90
54518;DHT22;40423;53.176;6.002;2023-03-21T02:00:27;9.20;99.90
54518;DHT22;40423;53.176;6.002;2023-03-21T02:02:54;9.20;99.90
54518;DHT22;40423;53.176;6.002;2023-03-21T02:05:48;9.20;99.90
54518;DHT22;40423;53.176;6.002;2023-03-21T02:08:15;9.20;99.90
54518;DHT22;40423;53.176;6.002;2023-03-21T02:10:43;9.20;99.90
54518;DHT22;40423;53.176;6.002;2023-03-21T02:13:10;9.30;99.90
54518;DHT22;40423;53.176;6.002;2023-03-21T02:15:42;9.30;99.90
54518;DHT22;40423;53.176;6.002;2023-03-21T02:27:27;9.30;99.90
54518;DHT22;40423;53.176;6.002;2023-03-21T02:30:18;9.20;99.90
54518;DHT22;40423;53.176;6.002;2023-03-21T02:33:10;9.30;99.90
54518;DHT22;40423;53.176;6.002;2023-03-21T02:41:35;9.20;99.90
54518;DHT22;40423;53.176;6.002;2023-03-21T02:44:34;9.30;99.90
54518;DHT22;40423;53.176;6.002;2023-03-21T02:50:20;9.30;99.90
54518;DHT22;40423;53.176;6.002;2023-03-21T02:52:50;9.30;99.90
54518;DHT22;40423;53.176;6.002;2023-03-21T02:55:23;9.20;99.90
54518;DHT22;40423;53.176;6.002;2023-03-21T02:57:50;9.20;99.90
54518;DHT22;40423;53.176;6.002;2023-03-21T03:00:19;9.30;99.90
54518;DHT22;40423;53.176;6.002;2023-03-21T03:02:46;9.30;99.90
54518;DHT22;40423;53.176;6.002;2023-03-21T03:05:19;9.30;99.90
54518;DHT22;40423;53.176;6.002;2023-03-21T03:10:41;9.30;99.90
54518;DHT22;40423;53.176;6.002;2023-03-21T03:13:40;9.30;99.90
54518;DHT22;40423;53.176;6.002;2023-03-21T03:16:14;9.30;99.90
54518;DHT22;40423;53.176;6.002;2023-03-21T03:18:54;9.30;99.90
54518;DHT22;40423;53.176;6.002;2023-03-21T03:24:02;9.30;99.90
54518;DHT22;40423;53.176;6.002;2023-03-21T03:29:18;9.20;99.90
54518;DHT22;40423;53.176;6.002;2023-03-21T03:31:49;9.30;99.90
54518;DHT22;40423;53.176;6.002;2023-03-21T03:34:19;9.30;99.90
54518;DHT22;40423;53.176;6.002;2023-03-21T03:36:50;9.30;99.90
54518;DHT22;40423;53.176;6.002;2023-03-21T03:39:24;9.20;99.90
54518;DHT22;40423;53.176;6.002;2023-03-21T03:42:04;9.30;99.90
54518;DHT22;40423;53.176;6.002;2023-03-21T03:44:31;9.30;99.90
54518;DHT22;40423;53.176;6.002;2023-03-21T03:47:02;9.30;99.90
54518;DHT22;40423;53.176;6.002;2023-03-21T03:49:34;9.30;99.90
54518;DHT22;40423;53.176;6.002;2023-03-21T03:52:07;9.30;99.90
54518;DHT22;40423;53.176;6.002;2023-03-21T03:54:38;9.30;99.90
54518;DHT22;40423;53.176;6.002;2023-03-21T03:57:05;9.30;99.90
54518;DHT22;40423;53.176;6.002;2023-03-21T03:59:35;9.30;99.90
54518;DHT22;40423;53.176;6.002;2023-03-21T04:02:02;9.30;99.90
54518;DHT22;40423;53.176;6.002;2023-03-21T04:04:28;9.30;99.90
54518;DHT22;40423;53.176;6.002;2023-03-21T04:06:56;9.30;99.90
54518;DHT22;40423;53.176;6.002;2023-03-21T04:09:24;9.30;99.90
54518;DHT22;40423;53.176;6.002;2023-03-21T04:11:50;9.30;99.90
54518;DHT22;40423;53.176;6.002;2023-03-21T04:14:16;9.30;99.90
54518;DHT22;40423;53.176;6.002;2023-03-21T04:16:41;9.30;99.90
54518;DHT22;40423;53.176;6.002;2023-03-21T04:19:07;9.30;99.90
54518;DHT22;40423;53.176;6.002;2023-03-21T04:21:33;9.30;99.90
54518;DHT22;40423;53.176;6.002;2023-03-21T04:23:59;9.30;99.90
54518;DHT22;40423;53.176;6.002;2023-03-21T04:26:25;9.30;99.90
54518;DHT22;40423;53.176;6.002;2023-03-21T04:28:58;9.30;99.90
54518;DHT22;40423;53.176;6.002;2023-03-21T04:31:28;9.30;99.90
54518;DHT22;40423;53.176;6.002;2023-03-21T04:34:00;9.30;99.90
54518;DHT22;40423;53.176;6.002;2023-03-21T04:36:26;9.30;99.90
54518;DHT22;40423;53.176;6.002;2023-03-21T04:38:56;9.30;99.90
54518;DHT22;40423;53.176;6.002;2023-03-21T04:41:28;9.30;99.90
54518;DHT22;40423;53.176;6.002;2023-03-21T04:43:54;9.30;99.90
54518;DHT22;40423;53.176;6.002;2023-03-21T04:46:20;9.30;99.90
54518;DHT22;40423;53.176;6.002;2023-03-21T04:48:46;9.30;99.90
54518;DHT22;40423;53.176;6.002;2023-03-21T04:51:14;9.30;99.90
54518;DHT22;40423;53.176;6.002;2023-03-21T04:53:40;9.30;99.90
54518;DHT22;40423;53.176;6.002;2023-03-21T04:56:10;9.30;99.90
54518;DHT22;40423;53.176;6.002;2023-03-21T04:58:36;9.40;99.90
54518;DHT22;40423;53.176;6.002;2023-03-21T05:01:02;9.40;99.90
54518;DHT22;40423;53.176;6.002;2023-03-21T05:03:30;9.40;99.90
54518;DHT22;40423;53.176;6.002;2023-03-21T05:06:00;9.40;99.90
54518;DHT22;40423;53.176;6.002;2023-03-21T05:08:26;9.40;99.90
54518;DHT22;40423;53.176;6.002;2023-03-21T05:10:52;9.40;99.90
54518;DHT22;40423;53.176;6.002;2023-03-21T05:13:18;9.40;99.90
54518;DHT22;40423;53.176;6.002;2023-03-21T05:15:44;9.40;99.90
54518;DHT22;40423;53.176;6.002;2023-03-21T05:18:10;9.40;99.90
54518;DHT22;40423;53.176;6.002;2023-03-21T05:20:40;9.40;99.90
54518;DHT22;40423;53.176;6.002;2023-03-21T05:23:11;9.40;99.90
54518;DHT22;40423;53.176;6.002;2023-03-21T05:25:38;9.40;99.90
54518;DHT22;40423;53.176;6.002;2023-03-21T05:28:05;9.40;99.90
54518;DHT22;40423;53.176;6.002;2023-03-21T05:30:31;9.40;99.90
54518;DHT22;40423;53.176;6.002;2023-03-21T05:32:57;9.40;99.90
54518;DHT22;40423;53.176;6.002;2023-03-21T05:35:23;9.40;99.90
54518;DHT22;40423;53.176;6.002;2023-03-21T05:37:49;9.40;99.90
54518;DHT22;40423;53.176;6.002;2023-03-21T05:40:15;9.40;99.90
54518;DHT22;40423;53.176;6.002;2023-03-21T05:42:40;9.40;99.90
54518;DHT22;40423;53.176;6.002;2023-03-21T05:45:06;9.40;99.90
54518;DHT22;40423;53.176;6.002;2023-03-21T05:47:32;9.40;99.90
54518;DHT22;40423;53.176;6.002;2023-03-21T05:49:58;9.40;99.90
54518;DHT22;40423;53.176;6.002;2023-03-21T05:52:24;9.40;99.90
54518;DHT22;40423;53.176;6.002;2023-03-21T05:54:50;9.50;99.90
54518;DHT22;40423;53.176;6.002;2023-03-21T05:57:16;9.40;99.90
54518;DHT22;40423;53.176;6.002;2023-03-21T05:59:44;9.50;99.90
54518;DHT22;40423;53.176;6.002;2023-03-21T06:02:10;9.50;99.90
54518;DHT22;40423;53.176;6.002;2023-03-21T06:04:36;9.40;99.90
54518;DHT22;40423;53.176;6.002;2023-03-21T06:07:02;9.50;99.90
54518;DHT22;40423;53.176;6.002;2023-03-21T06:09:28;9.50;99.90
54518;DHT22;40423;53.176;6.002;2023-03-21T06:11:55;9.50;99.90
54518;DHT22;40423;53.176;6.002;2023-03-21T06:14:22;9.50;99.90
54518;DHT22;40423;53.176;6.002;2023-03-21T06:16:48;9.50;99.90
54518;DHT22;40423;53.176;6.002;2023-03-21T06:19:15;9.50;99.90
54518;DHT22;40423;53.176;6.002;2023-03-21T06:21:41;9.50;99.90
54518;DHT22;40423;53.176;6.002;2023-03-21T06:24:08;9.50;99.90
54518;DHT22;40423;53.176;6.002;2023-03-21T06:26:34;9.50;99.90
54518;DHT22;40423;53.176;6.002;2023-03-21T06:29:00;9.50;99.90
54518;DHT22;40423;53.176;6.002;2023-03-21T06:31:26;9.50;99.90
54518;DHT22;40423;53.176;6.002;2023-03-21T06:33:52;9.50;99.90
54518;DHT22;40423;53.176;6.002;2023-03-21T06:36:18;9.50;99.90
54518;DHT22;40423;53.176;6.002;2023-03-21T06:38:44;9.50;99.90
54518;DHT22;40423;53.176;6.002;2023-03-21T06:41:11;9.60;99.90
54518;DHT22;40423;53.176;6.002;2023-03-21T06:43:37;9.60;99.90
54518;DHT22;40423;53.176;6.002;2023-03-21T06:46:03;9.60;99.90
54518;DHT22;40423;53.176;6.002;2023-03-21T06:48:30;9.60;99.90
54518;DHT22;40423;53.176;6.002;2023-03-21T06:50:56;9.60;99.90
54518;DHT22;40423;53.176;6.002;2023-03-21T06:53:23;9.60;99.90
54518;DHT22;40423;53.176;6.002;2023-03-21T06:55:52;9.60;99.90
54518;DHT22;40423;53.176;6.002;2023-03-21T06:58:19;9.60;99.90
54518;DHT22;40423;53.176;6.002;2023-03-21T07:00:45;9.60;99.90
54518;DHT22;40423;53.176;6.002;2023-03-21T07:03:11;9.60;99.90
54518;DHT22;40423;53.176;6.002;2023-03-21T07:05:37;9.60;99.90
54518;DHT22;40423;53.176;6.002;2023-03-21T07:08:04;9.60;99.90
54518;DHT22;40423;53.176;6.002;2023-03-21T07:10:30;9.60;99.90
54518;DHT22;40423;53.176;6.002;2023-03-21T07:12:58;9.60;99.90
54518;DHT22;40423;53.176;6.002;2023-03-21T07:15:24;9.60;99.90
54518;DHT22;40423;53.176;6.002;2023-03-21T07:17:51;9.60;99.90
54518;DHT22;40423;53.176;6.002;2023-03-21T07:20:16;9.60;99.90
54518;DHT22;40423;53.176;6.002;2023-03-21T07:22:42;9.60;99.90
54518;DHT22;40423;53.176;6.002;2023-03-21T07:25:09;9.60;99.90
54518;DHT22;40423;53.176;6.002;2023-03-21T07:27:35;9.60;99.90
54518;DHT22;40423;53.176;6.002;2023-03-21T07:30:04;9.60;99.90
54518;DHT22;40423;53.176;6.002;2023-03-21T07:32:34;9.60;99.90
54518;DHT22;40423;53.176;6.002;2023-03-21T07:35:02;9.60;99.90
54518;DHT22;40423;53.176;6.002;2023-03-21T07:37:28;9.60;99.90
54518;DHT22;40423;53.176;6.002;2023-03-21T07:39:54;9.60;99.90
54518;DHT22;40423;53.176;6.002;2023-03-21T07:42:20;9.60;99.90
54518;DHT22;40423;53.176;6.002;2023-03-21T07:44:46;9.60;99.90
54518;DHT22;40423;53.176;6.002;2023-03-21T07:47:11;9.60;99.90
54518;DHT22;40423;53.176;6.002;2023-03-21T07:49:37;9.70;99.90
54518;DHT22;40423;53.176;6.002;2023-03-21T07:52:03;9.60;99.90
54518;DHT22;40423;53.176;6.002;2023-03-21T07:54:29;9.60;99.90
54518;DHT22;40423;53.176;6.002;2023-03-21T07:56:56;9.60;99.90
54518;DHT22;40423;53.176;6.002;2023-03-21T07:59:22;9.60;99.90
54518;DHT22;40423;53.176;6.002;2023-03-21T08:01:48;9.60;99.90
54518;DHT22;40423;53.176;6.002;2023-03-21T08:04:14;9.60;99.90
54518;DHT22;40423;53.176;6.002;2023-03-21T08:06:40;9.70;99.90
54518;DHT22;40423;53.176;6.002;2023-03-21T08:09:06;9.60;99.90
54518;DHT22;40423;53.176;6.002;2023-03-21T08:11:32;9.70;99.90
54518;DHT22;40423;53.176;6.002;2023-03-21T08:13:59;9.60;99.90
54518;DHT22;40423;53.176;6.002;2023-03-21T08:16:26;9.60;99.90
54518;DHT22;40423;53.176;6.002;2023-03-21T08:18:52;9.60;99.90
54518;DHT22;40423;53.176;6.002;2023-03-21T08:21:18;9.60;99.90
54518;DHT22;40423;53.176;6.002;2023-03-21T08:23:43;9.70;99.90
54518;DHT22;40423;53.176;6.002;2023-03-21T08:26:09;9.70;99.90
54518;DHT22;40423;53.176;6.002;2023-03-21T08:28:36;9.70;99.90
54518;DHT22;40423;53.176;6.002;2023-03-21T08:31:08;9.70;99.90
54518;DHT22;40423;53.176;6.002;2023-03-21T08:33:34;9.70;99.90
54518;DHT22;40423;53.176;6.002;2023-03-21T08:35:59;9.70;99.90
54518;DHT22;40423;53.176;6.002;2023-03-21T08:38:25;9.70;99.90
54518;DHT22;40423;53.176;6.002;2023-03-21T08:40:55;9.80;99.90
54518;DHT22;40423;53.176;6.002;2023-03-21T08:43:21;9.80;99.90
54518;DHT22;40423;53.176;6.002;2023-03-21T08:45:48;9.80;99.90
54518;DHT22;40423;53.176;6.002;2023-03-21T08:48:14;9.80;99.90
54518;DHT22;40423;53.176;6.002;2023-03-21T08:50:39;9.80;99.90
54518;DHT22;40423;53.176;6.002;2023-03-21T08:53:05;9.80;99.90
54518;DHT22;40423;53.176;6.002;2023-03-21T08:55:31;9.80;99.90
54518;DHT22;40423;53.176;6.002;2023-03-21T08:57:58;9.80;99.90
54518;DHT22;40423;53.176;6.002;2023-03-21T09:00:24;9.80;99.90
54518;DHT22;40423;53.176;6.002;2023-03-21T09:02:50;9.90;99.90
54518;DHT22;40423;53.176;6.002;2023-03-21T09:05:19;9.90;99.90
54518;DHT22;40423;53.176;6.002;2023-03-21T09:07:45;9.90;99.90
54518;DHT22;40423;53.176;6.002;2023-03-21T09:12:43;10.00;99.90
54518;DHT22;40423;53.176;6.002;2023-03-21T09:15:10;10.00;99.90
54518;DHT22;40423;53.176;6.002;2023-03-21T09:17:37;10.00;99.90
54518;DHT22;40423;53.176;6.002;2023-03-21T09:20:12;10.00;99.90
54518;DHT22;40423;53.176;6.002;2023-03-21T09:22:44;10.00;99.90
54518;DHT22;40423;53.176;6.002;2023-03-21T09:25:11;10.00;99.90
54518;DHT22;40423;53.176;6.002;2023-03-21T09:27:37;10.10;99.90
54518;DHT22;40423;53.176;6.002;2023-03-21T09:30:05;10.10;99.90
54518;DHT22;40423;53.176;6.002;2023-03-21T09:32:32;10.10;99.90
54518;DHT22;40423;53.176;6.002;2023-03-21T09:34:58;10.10;99.90
54518;DHT22;40423;53.176;6.002;2023-03-21T09:37:24;10.10;99.90
54518;DHT22;40423;53.176;6.002;2023-03-21T09:39:50;10.10;99.90
54518;DHT22;40423;53.176;6.002;2023-03-21T09:44:52;10.10;99.90
54518;DHT22;40423;53.176;6.002;2023-03-21T09:47:22;10.10;99.90
54518;DHT22;40423;53.176;6.002;2023-03-21T09:49:58;10.10;99.90
54518;DHT22;40423;53.176;6.002;2023-03-21T09:55:22;10.10;99.90
54518;DHT22;40423;53.176;6.002;2023-03-21T09:58:06;10.10;99.90
54518;DHT22;40423;53.176;6.002;2023-03-21T10:00:37;10.10;99.90
54518;DHT22;40423;53.176;6.002;2023-03-21T10:03:21;10.10;99.90
54518;DHT22;40423;53.176;6.002;2023-03-21T10:05:50;10.10;99.90
54518;DHT22;40423;53.176;6.002;2023-03-21T10:08:23;10.20;99.90
54518;DHT22;40423;53.176;6.002;2023-03-21T10:10:59;10.20;99.90
54518;DHT22;40423;53.176;6.002;2023-03-21T10:13:28;10.20;99.90
54518;DHT22;40423;53.176;6.002;2023-03-21T10:16:00;10.30;99.90
54518;DHT22;40423;53.176;6.002;2023-03-21T10:18:28;10.40;99.90
54518;DHT22;40423;53.176;6.002;2023-03-21T10:20:55;10.50;99.90
54518;DHT22;40423;53.176;6.002;2023-03-21T10:23:27;10.50;99.90
54518;DHT22;40423;53.176;6.002;2023-03-21T10:25:59;10.50;99.90
54518;DHT22;40423;53.176;6.002;2023-03-21T10:28:31;10.50;99.90
54518;DHT22;40423;53.176;6.002;2023-03-21T10:31:03;10.50;99.90
54518;DHT22;40423;53.176;6.002;2023-03-21T10:33:43;10.60;99.90
54518;DHT22;40423;53.176;6.002;2023-03-21T10:36:16;10.70;99.90
54518;DHT22;40423;53.176;6.002;2023-03-21T10:39:05;10.90;99.90
54518;DHT22;40423;53.176;6.002;2023-03-21T10:41:32;11.00;99.90
54518;DHT22;40423;53.176;6.002;2023-03-21T10:44:11;11.00;99.90
54518;DHT22;40423;53.176;6.002;2023-03-21T10:46:53;11.10;99.90
54518;DHT22;40423;53.176;6.002;2023-03-21T10:49:20;11.20;99.90
54518;DHT22;40423;53.176;6.002;2023-03-21T10:51:50;11.20;99.90
54518;DHT22;40423;53.176;6.002;2023-03-21T10:54:20;11.30;99.90
54518;DHT22;40423;53.176;6.002;2023-03-21T10:57:05;11.20;99.90
54518;DHT22;40423;53.176;6.002;2023-03-21T10:59:40;11.30;99.90
54518;DHT22;40423;53.176;6.002;2023-03-21T11:02:32;11.30;99.90
54518;DHT22;40423;53.176;6.002;2023-03-21T11:05:20;11.20;99.90
54518;DHT22;40423;53.176;6.002;2023-03-21T11:07:55;11.30;99.90
54518;DHT22;40423;53.176;6.002;2023-03-21T11:10:33;11.30;99.90
54518;DHT22;40423;53.176;6.002;2023-03-21T11:13:15;11.30;99.90
54518;DHT22;40423;53.176;6.002;2023-03-21T11:15:56;11.40;99.90
54518;DHT22;40423;53.176;6.002;2023-03-21T11:18:24;11.40;99.90
54518;DHT22;40423;53.176;6.002;2023-03-21T11:20:56;11.40;99.90
54518;DHT22;40423;53.176;6.002;2023-03-21T11:23:29;11.40;99.90
54518;DHT22;40423;53.176;6.002;2023-03-21T11:25:55;11.50;99.90
54518;DHT22;40423;53.176;6.002;2023-03-21T11:28:25;11.50;99.90
54518;DHT22;40423;53.176;6.002;2023-03-21T11:31:00;11.50;99.90
54518;DHT22;40423;53.176;6.002;2023-03-21T11:33:31;11.50;99.90
54518;DHT22;40423;53.176;6.002;2023-03-21T11:36:04;11.60;99.90
54518;DHT22;40423;53.176;6.002;2023-03-21T11:38:38;11.60;99.90
54518;DHT22;40423;53.176;6.002;2023-03-21T11:41:05;11.60;99.90
54518;DHT22;40423;53.176;6.002;2023-03-21T11:43:37;11.60;99.90
54518;DHT22;40423;53.176;6.002;2023-03-21T11:48:29;11.60;99.90
54518;DHT22;40423;53.176;6.002;2023-03-21T11:51:01;11.60;99.90
54518;DHT22;40423;53.176;6.002;2023-03-21T11:53:48;11.60;99.90
54518;DHT22;40423;53.176;6.002;2023-03-21T11:56:28;11.60;99.90
54518;DHT22;40423;53.176;6.002;2023-03-21T11:59:11;11.60;99.90
54518;DHT22;40423;53.176;6.002;2023-03-21T12:04:45;11.60;99.90
54518;DHT22;40423;53.176;6.002;2023-03-21T12:15:27;11.50;99.90
54518;DHT22;40423;53.176;6.002;2023-03-21T12:20:53;11.50;99.90
54518;DHT22;40423;53.176;6.002;2023-03-21T12:26:21;11.40;99.90
54518;DHT22;40423;53.176;6.002;2023-03-21T12:37:27;11.50;99.90
54518;DHT22;40423;53.176;6.002;2023-03-21T12:40:27;11.60;99.90
54518;DHT22;40423;53.176;6.002;2023-03-21T12:45:33;11.80;99.90
54518;DHT22;40423;53.176;6.002;2023-03-21T12:50:46;11.80;99.90
54518;DHT22;40423;53.176;6.002;2023-03-21T12:56:01;11.90;99.90
54518;DHT22;40423;53.176;6.002;2023-03-21T12:58:35;11.90;99.90
54518;DHT22;40423;53.176;6.002;2023-03-21T13:01:04;11.90;99.90
54518;DHT22;40423;53.176;6.002;2023-03-21T13:03:43;12.00;99.90
54518;DHT22;40423;53.176;6.002;2023-03-21T13:06:15;12.10;99.90
54518;DHT22;40423;53.176;6.002;2023-03-21T13:08:53;12.20;99.90
54518;DHT22;40423;53.176;6.002;2023-03-21T13:11:24;12.30;99.90
54518;DHT22;40423;53.176;6.002;2023-03-21T13:16:52;12.40;99.90
54518;DHT22;40423;53.176;6.002;2023-03-21T13:22:25;12.20;99.90
54518;DHT22;40423;53.176;6.002;2023-03-21T13:27:30;12.20;99.90
54518;DHT22;40423;53.176;6.002;2023-03-21T13:32:35;12.20;99.90
54518;DHT22;40423;53.176;6.002;2023-03-21T13:37:41;12.30;99.90
54518;DHT22;40423;53.176;6.002;2023-03-21T13:42:57;12.50;99.90
54518;DHT22;40423;53.176;6.002;2023-03-21T13:45:30;12.50;99.90
54518;DHT22;40423;53.176;6.002;2023-03-21T13:48:04;12.50;99.90
54518;DHT22;40423;53.176;6.002;2023-03-21T13:55:28;12.60;99.90
54518;DHT22;40423;53.176;6.002;2023-03-21T13:57:55;12.60;99.90
54518;DHT22;40423;53.176;6.002;2023-03-21T14:00:28;12.70;99.90
54518;DHT22;40423;53.176;6.002;2023-03-21T14:03:14;12.80;99.90
54518;DHT22;40423;53.176;6.002;2023-03-21T14:05:48;12.90;99.90
54518;DHT22;40423;53.176;6.002;2023-03-21T14:08:17;13.00;99.90
54518;DHT22;40423;53.176;6.002;2023-03-21T14:10:51;13.00;99.90
54518;DHT22;40423;53.176;6.002;2023-03-21T14:13:20;13.00;99.90
54518;DHT22;40423;53.176;6.002;2023-03-21T14:15:53;13.00;99.90
54518;DHT22;40423;53.176;6.002;2023-03-21T14:18:21;12.90;99.90
54518;DHT22;40423;53.176;6.002;2023-03-21T14:20:55;13.00;99.90
54518;DHT22;40423;53.176;6.002;2023-03-21T14:23:21;12.90;99.90
54518;DHT22;40423;53.176;6.002;2023-03-21T14:25:48;12.90;99.90
54518;DHT22;40423;53.176;6.002;2023-03-21T14:28:20;12.90;99.90
54518;DHT22;40423;53.176;6.002;2023-03-21T14:30:52;12.90;99.90
54518;DHT22;40423;53.176;6.002;2023-03-21T14:33:37;12.90;99.90
54518;DHT22;40423;53.176;6.002;2023-03-21T14:36:16;12.90;99.90
54518;DHT22;40423;53.176;6.002;2023-03-21T14:39:03;12.80;99.90
54518;DHT22;40423;53.176;6.002;2023-03-21T14:41:30;12.70;99.90
54518;DHT22;40423;53.176;6.002;2023-03-21T14:44:13;12.60;99.90
54518;DHT22;40423;53.176;6.002;2023-03-21T14:46:39;12.50;99.90
54518;DHT22;40423;53.176;6.002;2023-03-21T14:49:17;12.50;99.90
54518;DHT22;40423;53.176;6.002;2023-03-21T14:51:44;12.40;99.90
54518;DHT22;40423;53.176;6.002;2023-03-21T14:54:15;12.40;99.90
54518;DHT22;40423;53.176;6.002;2023-03-21T14:56:59;12.30;99.90
54518;DHT22;40423;53.176;6.002;2023-03-21T14:59:35;12.20;99.90
54518;DHT22;40423;53.176;6.002;2023-03-21T15:02:21;12.20;99.90
54518;DHT22;40423;53.176;6.002;2023-03-21T15:04:53;12.20;99.90
54518;DHT22;40423;53.176;6.002;2023-03-21T15:07:30;12.20;99.90
54518;DHT22;40423;53.176;6.002;2023-03-21T15:10:00;12.20;99.90
54518;DHT22;40423;53.176;6.002;2023-03-21T15:12:28;12.10;99.90
54518;DHT22;40423;53.176;6.002;2023-03-21T15:14:55;12.00;99.90
54518;DHT22;40423;53.176;6.002;2023-03-21T15:17:21;12.00;99.90
54518;DHT22;40423;53.176;6.002;2023-03-21T15:19:48;11.90;99.90
54518;DHT22;40423;53.176;6.002;2023-03-21T15:22:19;11.90;99.90
54518;DHT22;40423;53.176;6.002;2023-03-21T15:24:55;11.80;99.90
54518;DHT22;40423;53.176;6.002;2023-03-21T15:27:23;11.80;99.90
54518;DHT22;40423;53.176;6.002;2023-03-21T15:29:51;11.80;99.90
54518;DHT22;40423;53.176;6.002;2023-03-21T15:32:21;11.70;99.90
54518;DHT22;40423;53.176;6.002;2023-03-21T15:34:48;11.70;99.90
54518;DHT22;40423;53.176;6.002;2023-03-21T15:37:26;11.70;99.90
54518;DHT22;40423;53.176;6.002;2023-03-21T15:39:53;11.60;99.90
54518;DHT22;40423;53.176;6.002;2023-03-21T15:42:33;11.60;99.90
54518;DHT22;40423;53.176;6.002;2023-03-21T15:45:07;11.60;99.90
54518;DHT22;40423;53.176;6.002;2023-03-21T15:47:58;11.50;99.90
54518;DHT22;40423;53.176;6.002;2023-03-21T15:50:34;11.50;99.90
54518;DHT22;40423;53.176;6.002;2023-03-21T15:53:16;11.40;99.90
54518;DHT22;40423;53.176;6.002;2023-03-21T15:55:46;11.40;99.90
54518;DHT22;40423;53.176;6.002;2023-03-21T15:58:22;11.40;99.90
54518;DHT22;40423;53.176;6.002;2023-03-21T16:00:54;11.30;99.90
54518;DHT22;40423;53.176;6.002;2023-03-21T16:03:36;11.30;99.90
54518;DHT22;40423;53.176;6.002;2023-03-21T16:08:46;11.30;99.90
54518;DHT22;40423;53.176;6.002;2023-03-21T16:13:47;11.20;99.90
54518;DHT22;40423;53.176;6.002;2023-03-21T16:16:21;11.20;99.90
54518;DHT22;40423;53.176;6.002;2023-03-21T16:18:48;11.10;99.90
54518;DHT22;40423;53.176;6.002;2023-03-21T16:21:15;11.10;99.90
54518;DHT22;40423;53.176;6.002;2023-03-21T16:23:43;11.10;99.90
54518;DHT22;40423;53.176;6.002;2023-03-21T16:26:14;11.10;99.90
54518;DHT22;40423;53.176;6.002;2023-03-21T16:28:41;11.10;99.90
54518;DHT22;40423;53.176;6.002;2023-03-21T16:31:25;11.00;99.90
54518;DHT22;40423;53.176;6.002;2023-03-21T16:33:51;11.00;99.90
54518;DHT22;40423;53.176;6.002;2023-03-21T16:36:28;11.00;99.90
54518;DHT22;40423;53.176;6.002;2023-03-21T16:38:55;11.00;99.90
54518;DHT22;40423;53.176;6.002;2023-03-21T16:41:23;11.00;99.90
54518;DHT22;40423;53.176;6.002;2023-03-21T16:43:50;11.00;99.90
54518;DHT22;40423;53.176;6.002;2023-03-21T16:46:22;10.90;99.90
54518;DHT22;40423;53.176;6.002;2023-03-21T16:48:50;10.90;99.90
54518;DHT22;40423;53.176;6.002;2023-03-21T16:51:22;10.90;99.90
54518;DHT22;40423;53.176;6.002;2023-03-21T16:53:50;10.90;99.90
54518;DHT22;40423;53.176;6.002;2023-03-21T16:56:24;10.90;99.90
54518;DHT22;40423;53.176;6.002;2023-03-21T16:58:53;10.80;99.90
54518;DHT22;40423;53.176;6.002;2023-03-21T17:01:21;10.80;99.90
54518;DHT22;40423;53.176;6.002;2023-03-21T17:03:51;10.80;99.90
54518;DHT22;40423;53.176;6.002;2023-03-21T17:06:19;10.80;99.90
54518;DHT22;40423;53.176;6.002;2023-03-21T17:08:46;10.70;99.90
54518;DHT22;40423;53.176;6.002;2023-03-21T17:11:14;10.70;99.90
54518;DHT22;40423;53.176;6.002;2023-03-21T17:13:47;10.70;99.90
54518;DHT22;40423;53.176;6.002;2023-03-21T17:16:16;10.70;99.90
54518;DHT22;40423;53.176;6.002;2023-03-21T17:18:42;10.70;99.90
54518;DHT22;40423;53.176;6.002;2023-03-21T17:21:16;10.70;99.90
54518;DHT22;40423;53.176;6.002;2023-03-21T17:23:43;10.70;99.90
54518;DHT22;40423;53.176;6.002;2023-03-21T17:26:10;10.70;99.90
54518;DHT22;40423;53.176;6.002;2023-03-21T17:28:37;10.70;99.90
54518;DHT22;40423;53.176;6.002;2023-03-21T17:31:05;10.70;99.90
54518;DHT22;40423;53.176;6.002;2023-03-21T17:33:36;10.70;99.90
54518;DHT22;40423;53.176;6.002;2023-03-21T17:36:01;10.70;99.90
54518;DHT22;40423;53.176;6.002;2023-03-21T17:38:27;10.70;99.90